createdAt,value
2023-04-25T00:00:22.804Z,0.00
2023-04-25T00:01:22.793Z,0.00
2023-04-25T00:02:22.819Z,0.00
2023-04-25T00:03:23.134Z,0.00
2023-04-25T00:04:23.184Z,0.00
2023-04-25T00:05:22.812Z,0.00
2023-04-25T00:06:22.692Z,0.00
2023-04-25T00:07:22.686Z,0.00
2023-04-25T00:08:22.654Z,0.00
2023-04-25T00:09:22.666Z,0.00
2023-04-25T00:10:22.707Z,0.00
2023-04-25T00:11:22.656Z,0.00
2023-04-25T00:12:22.627Z,0.00
2023-04-25T00:13:22.593Z,0.00
2023-04-25T00:14:22.618Z,0.00
2023-04-25T00:15:22.584Z,0.00
2023-04-25T00:16:22.653Z,0.00
2023-04-25T00:17:22.602Z,0.00
2023-04-25T00:18:22.556Z,0.00
2023-04-25T00:19:22.526Z,0.00
2023-04-25T00:20:22.515Z,0.00
2023-04-25T00:21:22.539Z,0.00
2023-04-25T00:22:22.517Z,0.00
2023-04-25T00:23:22.468Z,0.00
2023-04-25T00:24:22.472Z,0.00
2023-04-25T00:25:22.461Z,0.00
2023-04-25T00:26:22.433Z,0.00
2023-04-25T00:27:22.467Z,0.00
2023-04-25T00:28:22.429Z,0.00
2023-04-25T00:29:22.408Z,0.00
2023-04-25T00:30:22.372Z,0.00
2023-04-25T00:31:22.397Z,0.00
2023-04-25T00:32:22.367Z,0.00
2023-04-25T00:33:22.344Z,0.00
2023-04-25T00:34:22.339Z,0.00
2023-04-25T00:35:22.341Z,0.00
2023-04-25T00:36:22.362Z,0.00
2023-04-25T00:37:22.298Z,0.00
2023-04-25T00:38:22.280Z,0.00
2023-04-25T00:39:22.300Z,0.00
2023-04-25T00:40:22.273Z,0.00
2023-04-25T00:41:22.246Z,0.00
2023-04-25T00:42:22.230Z,0.00
2023-04-25T00:43:22.229Z,0.00
2023-04-25T00:44:22.235Z,0.00
2023-04-25T00:45:22.210Z,0.00
2023-04-25T00:46:22.234Z,0.00
2023-04-25T00:47:22.205Z,0.00
2023-04-25T00:48:22.179Z,0.00
2023-04-25T00:49:22.134Z,0.00
2023-04-25T00:50:22.121Z,0.00
2023-04-25T00:51:22.123Z,0.00
2023-04-25T00:52:22.119Z,0.00
2023-04-25T00:53:22.109Z,0.00
2023-04-25T00:54:22.131Z,0.00
2023-04-25T00:55:22.070Z,0.00
2023-04-25T00:56:22.075Z,0.00
2023-04-25T00:57:22.039Z,0.00
2023-04-25T00:58:22.026Z,0.00
2023-04-25T00:59:22.088Z,0.00
2023-04-25T01:00:21.997Z,0.00
2023-04-25T01:01:22.082Z,0.00
2023-04-25T01:02:22.140Z,0.00
2023-04-25T01:03:22.115Z,0.00
2023-04-25T01:04:22.129Z,0.00
2023-04-25T01:05:21.929Z,0.00
2023-04-25T01:06:21.917Z,0.00
2023-04-25T01:07:21.918Z,0.00
2023-04-25T01:08:21.918Z,0.00
2023-04-25T01:09:21.930Z,0.00
2023-04-25T01:10:21.862Z,0.00
2023-04-25T01:11:21.863Z,0.00
2023-04-25T01:12:21.855Z,0.00
2023-04-25T01:13:21.823Z,0.00
2023-04-25T01:14:21.832Z,0.00
2023-04-25T01:15:21.817Z,0.00
2023-04-25T01:16:21.861Z,0.00
2023-04-25T01:17:21.776Z,0.00
2023-04-25T01:18:21.821Z,0.00
2023-04-25T01:19:21.781Z,0.00
2023-04-25T01:20:21.743Z,0.00
2023-04-25T01:21:21.710Z,0.00
2023-04-25T01:22:21.714Z,0.00
2023-04-25T01:23:21.702Z,0.00
2023-04-25T01:24:21.731Z,0.00
2023-04-25T01:25:21.666Z,0.00
2023-04-25T01:26:21.676Z,0.00
2023-04-25T01:27:21.637Z,0.00
2023-04-25T01:28:21.647Z,0.00
2023-04-25T01:29:21.633Z,0.00
2023-04-25T01:30:21.621Z,0.00
2023-04-25T01:31:21.614Z,0.00
2023-04-25T01:32:21.615Z,0.00
2023-04-25T01:33:21.616Z,0.00
2023-04-25T01:34:21.582Z,0.00
2023-04-25T01:35:21.572Z,0.00
2023-04-25T01:36:21.541Z,0.00
2023-04-25T01:37:21.529Z,0.00
2023-04-25T01:38:21.521Z,0.00
2023-04-25T01:39:21.505Z,0.00
2023-04-25T01:40:21.498Z,0.00
2023-04-25T01:41:22.229Z,0.00
2023-04-25T01:42:21.456Z,0.00
2023-04-25T01:43:21.448Z,0.00
2023-04-25T01:44:21.431Z,0.00
2023-04-25T01:45:21.437Z,0.00
2023-04-25T01:46:21.500Z,0.00
2023-04-25T01:47:21.392Z,0.00
2023-04-25T01:48:21.379Z,0.00
2023-04-25T01:49:21.373Z,0.00
2023-04-25T01:50:21.399Z,0.00
2023-04-25T01:51:21.336Z,0.00
2023-04-25T01:52:21.349Z,0.00
2023-04-25T01:53:21.296Z,0.00
2023-04-25T01:54:21.305Z,0.00
2023-04-25T01:55:21.296Z,0.00
2023-04-25T01:56:21.269Z,0.00
2023-04-25T01:57:21.295Z,0.00
2023-04-25T01:58:21.300Z,0.00
2023-04-25T01:59:21.234Z,0.00
2023-04-25T02:00:21.244Z,0.00
2023-04-25T02:01:21.251Z,0.00
2023-04-25T02:02:21.361Z,0.00
2023-04-25T02:03:21.373Z,0.00
2023-04-25T02:04:21.238Z,0.00
2023-04-25T02:05:21.169Z,0.00
2023-04-25T02:06:21.850Z,0.00
2023-04-25T02:07:21.152Z,0.00
2023-04-25T02:08:21.129Z,0.00
2023-04-25T02:09:21.102Z,0.00
2023-04-25T02:10:21.096Z,0.00
2023-04-25T02:11:21.127Z,0.00
2023-04-25T02:12:21.104Z,0.00
2023-04-25T02:13:21.063Z,0.00
2023-04-25T02:14:21.048Z,0.00
2023-04-25T02:15:21.048Z,0.00
2023-04-25T02:16:21.039Z,0.00
2023-04-25T02:17:21.002Z,0.00
2023-04-25T02:18:21.107Z,0.00
2023-04-25T02:19:20.965Z,0.00
2023-04-25T02:20:20.950Z,0.00
2023-04-25T02:21:20.942Z,0.00
2023-04-25T02:22:20.961Z,0.00
2023-04-25T02:23:20.923Z,0.00
2023-04-25T02:24:20.913Z,0.00
2023-04-25T02:25:20.912Z,0.00
2023-04-25T02:26:20.893Z,0.00
2023-04-25T02:27:20.895Z,0.00
2023-04-25T02:28:20.859Z,0.00
2023-04-25T02:29:20.866Z,0.00
2023-04-25T02:30:20.859Z,0.00
2023-04-25T02:31:20.846Z,0.00
2023-04-25T02:32:20.816Z,0.00
2023-04-25T02:33:20.802Z,0.00
2023-04-25T02:34:20.781Z,0.00
2023-04-25T02:35:20.802Z,0.00
2023-04-25T02:36:20.752Z,0.00
2023-04-25T02:37:20.785Z,0.00
2023-04-25T02:38:20.768Z,0.00
2023-04-25T02:39:20.735Z,0.00
2023-04-25T02:40:20.765Z,0.00
2023-04-25T02:41:20.720Z,0.00
2023-04-25T02:42:20.683Z,0.00
2023-04-25T02:43:20.662Z,0.00
2023-04-25T02:44:20.669Z,0.00
2023-04-25T02:45:20.655Z,0.00
2023-04-25T02:46:32.166Z,0.00
2023-04-25T02:47:21.753Z,0.00
2023-04-25T02:48:20.617Z,0.00
2023-04-25T02:49:20.606Z,0.00
2023-04-25T02:50:20.556Z,0.00
2023-04-25T02:51:20.884Z,0.00
2023-04-25T02:52:20.558Z,0.00
2023-04-25T02:53:20.518Z,0.00
2023-04-25T02:54:20.506Z,0.00
2023-04-25T02:55:20.494Z,0.00
2023-04-25T02:56:20.510Z,0.00
2023-04-25T02:57:20.523Z,0.00
2023-04-25T02:58:20.458Z,0.00
2023-04-25T02:59:20.444Z,0.00
2023-04-25T03:00:20.448Z,0.00
2023-04-25T03:01:20.544Z,0.00
2023-04-25T03:02:20.495Z,0.00
2023-04-25T03:03:20.584Z,0.00
2023-04-25T03:04:20.475Z,0.00
2023-04-25T03:05:20.440Z,0.00
2023-04-25T03:06:20.370Z,0.00
2023-04-25T03:07:20.357Z,0.00
2023-04-25T03:08:20.358Z,0.00
2023-04-25T03:09:20.994Z,0.00
2023-04-25T03:10:20.325Z,0.00
2023-04-25T03:11:20.287Z,0.00
2023-04-25T03:12:20.389Z,0.00
2023-04-25T03:13:20.268Z,0.00
2023-04-25T03:14:20.254Z,0.00
2023-04-25T03:15:20.250Z,0.00
2023-04-25T03:16:20.245Z,0.00
2023-04-25T03:17:20.239Z,0.00
2023-04-25T03:18:20.204Z,0.00
2023-04-25T03:19:20.236Z,0.00
2023-04-25T03:20:20.211Z,0.00
2023-04-25T03:21:20.184Z,0.00
2023-04-25T03:22:20.176Z,0.00
2023-04-25T03:23:20.177Z,4.00
2023-04-25T03:24:20.112Z,4.00
2023-04-25T03:25:20.141Z,0.00
2023-04-25T03:26:20.166Z,4.00
2023-04-25T03:27:20.104Z,4.00
2023-04-25T03:28:20.107Z,4.00
2023-04-25T03:29:20.066Z,4.00
2023-04-25T03:30:20.049Z,4.00
2023-04-25T03:31:20.068Z,4.00
2023-04-25T03:32:20.087Z,8.00
2023-04-25T03:33:20.184Z,8.00
2023-04-25T03:34:20.049Z,8.00
2023-04-25T03:35:19.987Z,8.00
2023-04-25T03:36:19.991Z,12.00
2023-04-25T03:37:19.961Z,12.00
2023-04-25T03:38:19.998Z,16.00
2023-04-25T03:39:19.972Z,20.00
2023-04-25T03:40:19.909Z,20.00
2023-04-25T03:41:19.902Z,24.00
2023-04-25T03:42:19.908Z,28.00
2023-04-25T03:43:23.746Z,32.00
2023-04-25T03:44:19.908Z,40.00
2023-04-25T03:45:19.842Z,40.00
2023-04-25T03:46:19.913Z,48.00
2023-04-25T03:47:19.830Z,52.00
2023-04-25T03:48:19.841Z,60.00
2023-04-25T03:49:19.821Z,68.00
2023-04-25T03:50:19.806Z,76.00
2023-04-25T03:51:19.805Z,84.00
2023-04-25T03:52:19.887Z,92.00
2023-04-25T03:53:19.756Z,100.00
2023-04-25T03:54:19.733Z,112.00
2023-04-25T03:55:19.724Z,120.00
2023-04-25T03:56:19.738Z,132.00
2023-04-25T03:57:19.708Z,148.00
2023-04-25T03:58:19.687Z,164.00
2023-04-25T03:59:19.688Z,180.00
2023-04-25T04:00:19.673Z,192.00
2023-04-25T04:01:19.639Z,212.00
2023-04-25T04:02:19.706Z,232.00
2023-04-25T04:03:19.830Z,252.00
2023-04-25T04:04:19.832Z,272.00
2023-04-25T04:05:19.657Z,300.00
2023-04-25T04:06:19.565Z,324.00
2023-04-25T04:07:19.566Z,352.00
2023-04-25T04:08:19.570Z,384.00
2023-04-25T04:09:19.559Z,412.00
2023-04-25T04:10:19.536Z,436.00
2023-04-25T04:11:19.527Z,468.00
2023-04-25T04:12:19.511Z,496.00
2023-04-25T04:13:19.488Z,524.00
2023-04-25T04:14:19.636Z,556.00
2023-04-25T04:15:19.471Z,588.00
2023-04-25T04:16:19.472Z,620.00
2023-04-25T04:17:19.488Z,656.00
2023-04-25T04:18:19.434Z,688.00
2023-04-25T04:19:19.403Z,724.00
2023-04-25T04:20:19.407Z,760.00
2023-04-25T04:21:19.360Z,792.00
2023-04-25T04:22:19.385Z,824.00
2023-04-25T04:23:19.349Z,860.00
2023-04-25T04:24:19.324Z,892.00
2023-04-25T04:25:19.328Z,928.00
2023-04-25T04:26:19.321Z,964.00
2023-04-25T04:27:19.331Z,1000.00
2023-04-25T04:28:19.332Z,1044.00
2023-04-25T04:29:19.260Z,1084.00
2023-04-25T04:30:19.255Z,1132.00
2023-04-25T04:31:19.383Z,1176.00
2023-04-25T04:32:19.254Z,1224.00
2023-04-25T04:33:19.233Z,1272.00
2023-04-25T04:34:19.247Z,1316.00
2023-04-25T04:35:19.200Z,1360.00
2023-04-25T04:36:19.198Z,1404.00
2023-04-25T04:37:19.185Z,1452.00
2023-04-25T04:38:19.199Z,1512.00
2023-04-25T04:39:19.163Z,1576.00
2023-04-25T04:40:19.130Z,1624.00
2023-04-25T04:41:19.172Z,1672.00
2023-04-25T04:42:19.119Z,1720.00
2023-04-25T04:43:19.094Z,1868.00
2023-04-25T04:44:19.072Z,3220.00
2023-04-25T04:45:19.118Z,6320.00
2023-04-25T04:46:19.307Z,7552.00
2023-04-25T04:47:19.056Z,9724.00
2023-04-25T04:48:19.028Z,12192.00
2023-04-25T04:49:19.017Z,10412.00
2023-04-25T04:50:19.022Z,17472.00
2023-04-25T04:51:18.989Z,19232.00
2023-04-25T04:52:19.002Z,17600.00
2023-04-25T04:53:18.962Z,16800.00
2023-04-25T04:54:18.978Z,8352.00
2023-04-25T04:55:18.978Z,6932.00
2023-04-25T04:56:18.941Z,11156.00
2023-04-25T04:57:19.186Z,12416.00
2023-04-25T04:58:19.339Z,9544.00
2023-04-25T04:59:18.906Z,8204.00
2023-04-25T05:00:18.862Z,4108.00
2023-04-25T05:01:18.890Z,2512.00
2023-04-25T05:02:18.846Z,2596.00
2023-04-25T05:03:18.904Z,2688.00
2023-04-25T05:04:18.901Z,2696.00
2023-04-25T05:05:18.804Z,2772.00
2023-04-25T05:06:18.802Z,2828.00
2023-04-25T05:07:18.799Z,2856.00
2023-04-25T05:08:18.755Z,2972.00
2023-04-25T05:09:18.765Z,3140.00
2023-04-25T05:10:18.728Z,3096.00
2023-04-25T05:11:18.728Z,3060.00
2023-04-25T05:12:18.764Z,3136.00
2023-04-25T05:13:18.718Z,3220.00
2023-04-25T05:14:18.666Z,3832.00
2023-04-25T05:15:19.022Z,5892.00
2023-04-25T05:16:18.732Z,5388.00
2023-04-25T05:17:18.634Z,4480.00
2023-04-25T05:18:18.660Z,7900.00
2023-04-25T05:19:18.607Z,10920.00
2023-04-25T05:20:18.611Z,25056.00
2023-04-25T05:21:18.638Z,37728.00
2023-04-25T05:22:18.579Z,36928.00
2023-04-25T05:23:18.566Z,32000.00
2023-04-25T05:24:18.549Z,20448.00
2023-04-25T05:25:18.641Z,13632.00
2023-04-25T05:26:18.541Z,13472.00
2023-04-25T05:27:18.513Z,12076.00
2023-04-25T05:28:18.494Z,13088.00
2023-04-25T05:29:18.505Z,12384.00
2023-04-25T05:30:18.465Z,9964.00
2023-04-25T05:31:18.501Z,9760.00
2023-04-25T05:32:18.535Z,9468.00
2023-04-25T05:33:18.488Z,9976.00
2023-04-25T05:34:18.425Z,10696.00
2023-04-25T05:35:18.463Z,10636.00
2023-04-25T05:36:18.398Z,10516.00
2023-04-25T05:37:18.377Z,10308.00
2023-04-25T05:38:18.359Z,9792.00
2023-04-25T05:39:18.425Z,9192.00
2023-04-25T05:40:18.338Z,9300.00
2023-04-25T05:41:18.324Z,9652.00
2023-04-25T05:42:18.360Z,10092.00
2023-04-25T05:43:18.298Z,10636.00
2023-04-25T05:44:18.317Z,10396.00
2023-04-25T05:45:18.340Z,9568.00
2023-04-25T05:46:18.353Z,9044.00
2023-04-25T05:47:18.253Z,8672.00
2023-04-25T05:48:18.252Z,8612.00
2023-04-25T05:49:19.632Z,9176.00
2023-04-25T05:50:18.196Z,9832.00
2023-04-25T05:51:18.193Z,10324.00
2023-04-25T05:52:18.165Z,10316.00
2023-04-25T05:53:18.161Z,10036.00
2023-04-25T05:54:18.204Z,9612.00
2023-04-25T05:55:18.187Z,9336.00
2023-04-25T05:56:18.136Z,9964.00
2023-04-25T05:57:18.431Z,11168.00
2023-04-25T05:58:18.108Z,12040.00
2023-04-25T05:59:18.096Z,11940.00
2023-04-25T06:00:18.152Z,11380.00
2023-04-25T06:01:18.081Z,9640.00
2023-04-25T06:02:18.150Z,8904.00
2023-04-25T06:03:20.437Z,9392.00
2023-04-25T06:04:18.587Z,9876.00
2023-04-25T06:05:18.225Z,10308.00
2023-04-25T06:06:18.009Z,10956.00
2023-04-25T06:07:18.001Z,10544.00
2023-04-25T06:08:17.974Z,9672.00
2023-04-25T06:09:17.991Z,9572.00
2023-04-25T06:10:17.973Z,10656.00
2023-04-25T06:11:17.931Z,11732.00
2023-04-25T06:12:17.938Z,11988.00
2023-04-25T06:13:17.923Z,11952.00
2023-04-25T06:14:18.222Z,11232.00
2023-04-25T06:15:28.069Z,10548.00
2023-04-25T06:16:18.918Z,10664.00
2023-04-25T06:17:17.864Z,11336.00
2023-04-25T06:18:17.848Z,11412.00
2023-04-25T06:19:17.829Z,11420.00
2023-04-25T06:20:17.835Z,12716.00
2023-04-25T06:21:17.785Z,22656.00
2023-04-25T06:22:17.764Z,32608.00
2023-04-25T06:23:17.774Z,56384.00
2023-04-25T06:24:17.757Z,60832.00
2023-04-25T06:25:17.778Z,33952.00
2023-04-25T06:26:17.759Z,19584.00
2023-04-25T06:27:17.732Z,26784.00
2023-04-25T06:28:17.728Z,46016.00
2023-04-25T06:29:17.695Z,70336.00
2023-04-25T06:30:17.701Z,71680.00
2023-04-25T06:31:17.704Z,43968.00
2023-04-25T06:32:17.663Z,29888.00
2023-04-25T06:33:17.630Z,28896.00
2023-04-25T06:34:17.624Z,37152.00
2023-04-25T06:35:17.623Z,59744.00
2023-04-25T06:36:17.646Z,64448.00
2023-04-25T06:37:17.655Z,39328.00
2023-04-25T06:38:17.570Z,34464.00
2023-04-25T06:39:17.591Z,37088.00
2023-04-25T06:40:17.585Z,37504.00
2023-04-25T06:41:17.658Z,48928.00
2023-04-25T06:42:17.554Z,54816.00
2023-04-25T06:43:17.515Z,35904.00
2023-04-25T06:44:17.521Z,42432.00
2023-04-25T06:45:17.521Z,33504.00
2023-04-25T06:46:17.495Z,36544.00
2023-04-25T06:47:17.548Z,8300.00
2023-04-25T06:48:17.506Z,8960.00
2023-04-25T06:49:17.456Z,17344.00
2023-04-25T06:50:17.419Z,6620.00
2023-04-25T06:51:17.445Z,9904.00
2023-04-25T06:52:21.223Z,4908.00
2023-04-25T06:53:17.385Z,4512.00
2023-04-25T06:54:17.386Z,4524.00
2023-04-25T06:55:17.377Z,3836.00
2023-04-25T06:56:17.367Z,4848.00
2023-04-25T06:57:17.348Z,3324.00
2023-04-25T06:58:17.336Z,2420.00
2023-04-25T06:59:17.315Z,2100.00
2023-04-25T07:00:17.311Z,1864.00
2023-04-25T07:01:17.340Z,1592.00
2023-04-25T07:02:17.385Z,1380.00
2023-04-25T07:03:17.434Z,1160.00
2023-04-25T07:04:17.359Z,1012.00
2023-04-25T07:05:19.208Z,992.00
2023-04-25T07:06:17.224Z,1012.00
2023-04-25T07:07:17.209Z,988.00
2023-04-25T07:08:17.229Z,976.00
2023-04-25T07:09:17.187Z,1012.00
2023-04-25T07:10:17.181Z,1020.00
2023-04-25T07:11:17.172Z,1024.00
2023-04-25T07:12:17.153Z,1036.00
2023-04-25T07:13:17.140Z,1044.00
2023-04-25T07:14:17.150Z,1084.00
2023-04-25T07:15:17.762Z,1064.00
2023-04-25T07:16:18.368Z,1048.00
2023-04-25T07:17:18.082Z,1080.00
2023-04-25T07:18:17.555Z,1096.00
2023-04-25T07:19:18.750Z,1072.00
2023-04-25T07:20:17.035Z,1048.00
2023-04-25T07:21:17.017Z,1068.00
2023-04-25T07:22:17.210Z,1096.00
2023-04-25T07:23:17.017Z,1076.00
2023-04-25T07:24:17.005Z,1032.00
2023-04-25T07:25:16.974Z,980.00
2023-04-25T07:26:17.132Z,968.00
2023-04-25T07:27:17.184Z,964.00
2023-04-25T07:28:19.317Z,1000.00
2023-04-25T07:29:17.323Z,996.00
2023-04-25T07:30:16.965Z,972.00
2023-04-25T07:31:16.897Z,956.00
2023-04-25T07:32:16.955Z,960.00
2023-04-25T07:33:17.194Z,980.00
2023-04-25T07:34:16.897Z,1004.00
2023-04-25T07:35:16.858Z,988.00
2023-04-25T07:36:16.861Z,980.00
2023-04-25T07:37:19.310Z,968.00
2023-04-25T07:38:16.839Z,960.00
2023-04-25T07:39:16.823Z,912.00
2023-04-25T07:40:16.769Z,880.00
2023-04-25T07:41:16.839Z,824.00
2023-04-25T07:42:16.749Z,776.00
2023-04-25T07:43:16.763Z,744.00
2023-04-25T07:44:16.755Z,736.00
2023-04-25T07:45:16.718Z,724.00
2023-04-25T07:46:16.772Z,744.00
2023-04-25T07:47:16.707Z,816.00
2023-04-25T07:48:16.665Z,832.00
2023-04-25T07:49:16.672Z,856.00
2023-04-25T07:50:16.662Z,876.00
2023-04-25T07:51:16.633Z,936.00
2023-04-25T07:52:16.644Z,928.00
2023-04-25T07:53:16.616Z,912.00
2023-04-25T07:54:16.633Z,924.00
2023-04-25T07:55:16.616Z,936.00
2023-04-25T07:56:16.580Z,932.00
2023-04-25T07:57:16.549Z,956.00
2023-04-25T07:58:16.556Z,996.00
2023-04-25T07:59:16.545Z,1044.00
2023-04-25T08:00:16.552Z,1108.00
2023-04-25T08:01:16.506Z,1116.00
2023-04-25T08:02:16.627Z,1144.00
2023-04-25T08:03:16.666Z,1204.00
2023-04-25T08:04:16.642Z,1224.00
2023-04-25T08:05:17.803Z,1224.00
2023-04-25T08:06:16.623Z,1208.00
2023-04-25T08:07:16.440Z,1200.00
2023-04-25T08:08:16.415Z,1228.00
2023-04-25T08:09:16.398Z,1300.00
2023-04-25T08:10:16.397Z,1320.00
2023-04-25T08:11:16.366Z,1356.00
2023-04-25T08:12:16.364Z,1388.00
2023-04-25T08:13:16.346Z,1428.00
2023-04-25T08:14:16.347Z,1472.00
2023-04-25T08:15:16.341Z,1468.00
2023-04-25T08:16:16.425Z,1440.00
2023-04-25T08:17:16.301Z,1444.00
2023-04-25T08:18:17.687Z,1436.00
2023-04-25T08:19:16.283Z,1488.00
2023-04-25T08:20:16.248Z,1568.00
2023-04-25T08:21:16.236Z,1520.00
2023-04-25T08:22:16.228Z,1416.00
2023-04-25T08:23:16.235Z,1296.00
2023-04-25T08:24:16.191Z,1200.00
2023-04-25T08:25:16.196Z,1144.00
2023-04-25T08:26:16.187Z,1108.00
2023-04-25T08:27:16.154Z,1016.00
2023-04-25T08:28:16.179Z,940.00
2023-04-25T08:29:16.139Z,856.00
2023-04-25T08:30:16.129Z,796.00
2023-04-25T08:31:16.170Z,764.00
2023-04-25T08:32:16.142Z,736.00
2023-04-25T08:33:16.274Z,696.00
2023-04-25T08:34:16.080Z,648.00
2023-04-25T08:35:16.065Z,592.00
2023-04-25T08:36:24.235Z,544.00
2023-04-25T08:37:17.266Z,512.00
2023-04-25T08:38:16.053Z,484.00
2023-04-25T08:39:15.997Z,468.00
2023-04-25T08:40:15.999Z,456.00
2023-04-25T08:41:16.025Z,452.00
2023-04-25T08:42:15.965Z,448.00
2023-04-25T08:43:16.087Z,456.00
2023-04-25T08:44:16.075Z,456.00
2023-04-25T08:45:15.928Z,460.00
2023-04-25T08:46:15.970Z,456.00
2023-04-25T08:47:15.896Z,456.00
2023-04-25T08:48:15.960Z,440.00
2023-04-25T08:49:15.929Z,428.00
2023-04-25T08:50:15.878Z,428.00
2023-04-25T08:51:15.872Z,424.00
2023-04-25T08:52:15.826Z,416.00
2023-04-25T08:53:15.836Z,416.00
2023-04-25T08:54:30.230Z,440.00
2023-04-25T08:55:16.892Z,488.00
2023-04-25T08:56:16.090Z,544.00
2023-04-25T08:57:15.783Z,596.00
2023-04-25T08:58:15.788Z,632.00
2023-04-25T08:59:15.787Z,692.00
2023-04-25T09:00:15.763Z,740.00
2023-04-25T09:01:15.774Z,756.00
2023-04-25T09:02:15.819Z,764.00
2023-04-25T09:03:15.864Z,768.00
2023-04-25T09:04:15.821Z,780.00
2023-04-25T09:05:15.638Z,788.00
2023-04-25T09:06:15.645Z,788.00
2023-04-25T09:07:15.643Z,796.00
2023-04-25T09:08:15.627Z,812.00
2023-04-25T09:09:15.711Z,828.00
2023-04-25T09:10:15.592Z,836.00
2023-04-25T09:11:15.556Z,844.00
2023-04-25T09:12:15.612Z,860.00
2023-04-25T09:13:15.585Z,884.00
2023-04-25T09:14:15.540Z,908.00
2023-04-25T09:16:15.542Z,980.00
2023-04-25T09:17:15.653Z,1044.00
2023-04-25T09:18:15.544Z,1124.00
2023-04-25T09:19:15.500Z,1192.00
2023-04-25T09:20:15.458Z,1284.00
2023-04-25T09:21:15.534Z,1356.00
2023-04-25T09:22:15.431Z,1424.00
2023-04-25T09:23:15.432Z,1512.00
2023-04-25T09:24:15.395Z,1596.00
2023-04-25T09:25:15.434Z,1684.00
2023-04-25T09:26:15.376Z,1772.00
2023-04-25T09:27:15.385Z,1852.00
2023-04-25T09:28:15.391Z,1972.00
2023-04-25T09:29:15.366Z,2072.00
2023-04-25T09:30:15.339Z,2144.00
2023-04-25T09:31:15.310Z,2196.00
2023-04-25T09:32:15.374Z,2208.00
2023-04-25T09:33:15.413Z,2272.00
2023-04-25T09:34:15.512Z,2388.00
2023-04-25T09:35:15.261Z,2524.00
2023-04-25T09:36:15.269Z,2528.00
2023-04-25T09:37:15.267Z,2512.00
2023-04-25T09:38:15.247Z,2524.00
2023-04-25T09:39:15.199Z,2420.00
2023-04-25T09:40:15.192Z,2356.00
2023-04-25T09:41:15.194Z,2316.00
2023-04-25T09:42:15.219Z,2256.00
2023-04-25T09:43:15.232Z,2220.00
2023-04-25T09:44:15.247Z,2200.00
2023-04-25T09:45:15.233Z,2172.00
2023-04-25T09:46:15.168Z,2144.00
2023-04-25T09:47:15.098Z,2140.00
2023-04-25T09:48:15.109Z,2200.00
2023-04-25T09:49:15.084Z,2272.00
2023-04-25T09:50:15.130Z,2316.00
2023-04-25T09:51:15.073Z,2376.00
2023-04-25T09:52:15.039Z,2432.00
2023-04-25T09:53:15.059Z,2484.00
2023-04-25T09:54:15.044Z,2552.00
2023-04-25T09:55:15.001Z,2596.00
2023-04-25T09:56:15.004Z,2692.00
2023-04-25T09:57:15.022Z,2876.00
2023-04-25T09:58:15.012Z,3120.00
2023-04-25T09:59:14.993Z,3244.00
2023-04-25T10:00:14.947Z,3384.00
2023-04-25T10:01:14.945Z,3516.00
2023-04-25T10:02:15.023Z,3628.00
2023-04-25T10:03:14.961Z,3784.00
2023-04-25T10:04:15.009Z,3840.00
2023-04-25T10:05:15.126Z,3844.00
2023-04-25T10:06:14.876Z,3804.00
2023-04-25T10:07:14.868Z,3712.00
2023-04-25T10:08:14.940Z,3556.00
2023-04-25T10:09:14.821Z,3200.00
2023-04-25T10:10:14.876Z,2780.00
2023-04-25T10:11:14.781Z,2520.00
2023-04-25T10:12:14.769Z,2436.00
2023-04-25T10:13:14.843Z,2280.00
2023-04-25T10:14:14.758Z,2200.00
2023-04-25T10:15:14.741Z,2224.00
2023-04-25T10:16:14.782Z,2244.00
2023-04-25T10:17:14.755Z,2296.00
2023-04-25T10:18:14.753Z,2284.00
2023-04-25T10:19:14.702Z,2220.00
2023-04-25T10:20:14.688Z,2204.00
2023-04-25T10:21:14.660Z,2204.00
2023-04-25T10:22:14.651Z,2160.00
2023-04-25T10:23:14.649Z,2092.00
2023-04-25T10:24:14.639Z,2024.00
2023-04-25T10:25:14.671Z,1932.00
2023-04-25T10:26:14.596Z,1872.00
2023-04-25T10:27:14.589Z,1816.00
2023-04-25T10:28:14.606Z,1752.00
2023-04-25T10:29:14.693Z,1700.00
2023-04-25T10:30:14.612Z,1672.00
2023-04-25T10:31:14.603Z,1644.00
2023-04-25T10:32:14.709Z,1588.00
2023-04-25T10:33:14.523Z,1540.00
2023-04-25T10:34:14.494Z,1508.00
2023-04-25T10:35:14.502Z,1504.00
2023-04-25T10:36:14.474Z,1504.00
2023-04-25T10:37:14.479Z,1500.00
2023-04-25T10:38:14.497Z,1472.00
2023-04-25T10:39:14.475Z,1472.00
2023-04-25T10:40:14.512Z,1468.00
2023-04-25T10:41:14.405Z,1436.00
2023-04-25T10:42:14.437Z,1416.00
2023-04-25T10:43:15.121Z,1376.00
2023-04-25T10:44:14.357Z,1372.00
2023-04-25T10:45:14.360Z,1368.00
2023-04-25T10:46:14.436Z,1364.00
2023-04-25T10:47:14.380Z,1392.00
2023-04-25T10:48:14.354Z,1432.00
2023-04-25T10:49:15.685Z,1472.00
2023-04-25T10:50:14.351Z,1484.00
2023-04-25T10:51:14.259Z,1508.00
2023-04-25T10:52:14.599Z,1528.00
2023-04-25T10:53:14.244Z,1524.00
2023-04-25T10:54:14.226Z,1516.00
2023-04-25T10:55:14.249Z,1512.00
2023-04-25T10:56:14.578Z,1512.00
2023-04-25T10:57:14.229Z,1476.00
2023-04-25T10:58:14.218Z,1396.00
2023-04-25T10:59:14.178Z,1308.00
2023-04-25T11:00:14.219Z,1280.00
2023-04-25T11:01:14.403Z,1284.00
2023-04-25T11:02:14.646Z,1284.00
2023-04-25T11:03:14.313Z,1268.00
2023-04-25T11:04:14.270Z,1264.00
2023-04-25T11:05:14.080Z,1236.00
2023-04-25T11:06:14.065Z,1196.00
2023-04-25T11:07:14.067Z,1172.00
2023-04-25T11:08:14.113Z,1156.00
2023-04-25T11:09:14.045Z,1120.00
2023-04-25T11:10:14.070Z,1084.00
2023-04-25T11:11:14.036Z,1072.00
2023-04-25T11:12:14.008Z,1060.00
2023-04-25T11:13:13.992Z,1048.00
2023-04-25T11:14:13.997Z,1008.00
2023-04-25T11:15:14.002Z,948.00
2023-04-25T11:16:23.622Z,916.00
2023-04-25T11:17:15.000Z,872.00
2023-04-25T11:18:13.959Z,820.00
2023-04-25T11:19:13.957Z,792.00
2023-04-25T11:20:13.907Z,792.00
2023-04-25T11:21:13.884Z,768.00
2023-04-25T11:22:13.884Z,736.00
2023-04-25T11:23:13.887Z,728.00
2023-04-25T11:24:13.850Z,728.00
2023-04-25T11:25:13.816Z,716.00
2023-04-25T11:26:13.869Z,732.00
2023-04-25T11:27:13.799Z,732.00
2023-04-25T11:28:13.773Z,748.00
2023-04-25T11:29:13.798Z,768.00
2023-04-25T11:30:13.785Z,780.00
2023-04-25T11:31:13.783Z,808.00
2023-04-25T11:32:13.808Z,844.00
2023-04-25T11:33:14.072Z,872.00
2023-04-25T11:34:13.689Z,932.00
2023-04-25T11:35:13.719Z,1044.00
2023-04-25T11:36:13.745Z,1196.00
2023-04-25T11:37:13.746Z,1312.00
2023-04-25T11:38:13.646Z,1412.00
2023-04-25T11:39:13.685Z,1464.00
2023-04-25T11:40:14.342Z,1432.00
2023-04-25T11:41:13.653Z,1432.00
2023-04-25T11:42:14.190Z,1396.00
2023-04-25T11:43:13.720Z,1316.00
2023-04-25T11:44:13.602Z,1240.00
2023-04-25T11:45:13.580Z,1200.00
2023-04-25T11:46:13.621Z,1208.00
2023-04-25T11:47:13.591Z,1220.00
2023-04-25T11:48:13.630Z,1228.00
2023-04-25T11:49:13.529Z,1244.00
2023-04-25T11:50:13.519Z,1304.00
2023-04-25T11:51:13.498Z,1376.00
2023-04-25T11:52:13.483Z,1408.00
2023-04-25T11:53:13.461Z,1424.00
2023-04-25T11:54:13.511Z,1416.00
2023-04-25T11:55:13.450Z,1380.00
2023-04-25T11:56:13.474Z,1388.00
2023-04-25T11:57:13.421Z,1340.00
2023-04-25T11:58:13.452Z,1264.00
2023-04-25T11:59:13.726Z,1224.00
2023-04-25T12:00:17.495Z,1188.00
2023-04-25T12:01:13.370Z,1264.00
2023-04-25T12:02:13.442Z,1344.00
2023-04-25T12:03:13.538Z,1324.00
2023-04-25T12:04:13.683Z,1304.00
2023-04-25T12:05:30.460Z,1288.00
2023-04-25T12:06:14.642Z,1328.00
2023-04-25T12:07:13.270Z,1276.00
2023-04-25T12:08:13.278Z,1184.00
2023-04-25T12:09:13.241Z,1152.00
2023-04-25T12:10:13.254Z,1152.00
2023-04-25T12:11:13.259Z,1116.00
2023-04-25T12:12:13.233Z,1072.00
2023-04-25T12:13:13.198Z,1072.00
2023-04-25T12:14:13.201Z,1136.00
2023-04-25T12:15:13.158Z,1192.00
2023-04-25T12:16:13.348Z,1212.00
2023-04-25T12:17:13.201Z,1224.00
2023-04-25T12:18:13.161Z,1272.00
2023-04-25T12:19:13.113Z,1300.00
2023-04-25T12:20:13.095Z,1268.00
2023-04-25T12:21:13.148Z,1192.00
2023-04-25T12:22:13.065Z,1128.00
2023-04-25T12:23:13.105Z,1144.00
2023-04-25T12:24:13.057Z,1196.00
2023-04-25T12:25:13.064Z,1340.00
2023-04-25T12:26:13.038Z,1568.00
2023-04-25T12:27:13.102Z,1884.00
2023-04-25T12:28:13.092Z,2252.00
2023-04-25T12:29:12.992Z,2492.00